Olivares, Spain
Current Conditions -  °F | °C
As of 1:00 AM on Thursday 27 Nov 2014 (Local Time) from LEZL Reporting Station
Broken Clouds Broken Clouds  
Wind Chill: 55°   Ceiling: 4800
Heat Index: 55°   Visibility: 6mi
Dew Point: 54°   Wind: 15mph
Humidity: 94%   Direction: 120°ESE
Pressure: 29.68"   Gusts: NA
Location:  37.42°N, 6.16°W
Report Text: LEZL 270000Z 12013KT 9999 FEW020 BKN048 13/12 Q1005 NOSIG
Loading
Personal Weather Stations






























Interactive Weather Map New forecast layout! Learn more

10-Day Weather Forecast

Advertisements
Track Severe Weather on mobile